createdAt,value
2017-12-21T00:02:06.781Z,3.60
2017-12-21T00:04:34.302Z,3.50
2017-12-21T00:07:02.609Z,3.60
2017-12-21T00:09:30.890Z,3.50
2017-12-21T00:11:58.421Z,3.50
2017-12-21T00:14:25.934Z,3.50
2017-12-21T00:16:53.522Z,3.50
2017-12-21T00:19:21.046Z,3.50
2017-12-21T00:21:48.562Z,3.50
2017-12-21T00:24:16.094Z,3.50
2017-12-21T00:26:43.618Z,3.50
2017-12-21T00:29:11.926Z,3.40
2017-12-21T00:31:39.482Z,3.40
2017-12-21T00:34:07.022Z,3.50
2017-12-21T00:36:35.317Z,3.50
2017-12-21T00:39:02.883Z,3.40
2017-12-21T00:41:30.414Z,3.50
2017-12-21T00:43:58.723Z,3.50
2017-12-21T00:46:26.242Z,3.50
2017-12-21T00:48:53.774Z,3.50
2017-12-21T00:51:21.304Z,3.50
2017-12-21T00:53:48.835Z,3.50
2017-12-21T00:56:16.346Z,3.50
2017-12-21T00:58:43.893Z,3.50
2017-12-21T01:01:11.414Z,3.50
2017-12-21T01:03:38.950Z,3.50
2017-12-21T01:06:06.462Z,3.50
2017-12-21T01:08:34.007Z,3.50
2017-12-21T01:11:01.535Z,3.60
2017-12-21T01:13:29.079Z,3.60
2017-12-21T01:15:56.593Z,3.50
2017-12-21T01:18:24.125Z,3.50
2017-12-21T01:20:51.645Z,3.50
2017-12-21T01:23:19.186Z,3.50
2017-12-21T01:25:46.712Z,3.50
2017-12-21T01:28:14.250Z,3.50
2017-12-21T01:30:42.538Z,3.50
2017-12-21T01:33:10.084Z,3.50
2017-12-21T01:35:38.369Z,3.50
2017-12-21T01:38:06.670Z,3.50
2017-12-21T01:40:34.194Z,3.50
2017-12-21T01:43:01.756Z,3.50
2017-12-21T01:45:29.284Z,3.50
2017-12-21T01:47:56.808Z,3.40
2017-12-21T01:50:25.119Z,3.50
2017-12-21T01:52:52.651Z,3.50
2017-12-21T01:55:20.949Z,3.50
2017-12-21T01:57:48.471Z,3.50
2017-12-21T02:00:16.002Z,3.50
2017-12-21T02:02:43.531Z,3.50
2017-12-21T02:05:11.847Z,3.40
2017-12-21T02:07:39.360Z,3.40
2017-12-21T02:10:06.900Z,3.40
2017-12-21T02:12:34.421Z,3.50
2017-12-21T02:15:01.955Z,3.50
2017-12-21T02:17:30.263Z,3.50
2017-12-21T02:19:57.782Z,3.50
2017-12-21T02:22:25.323Z,3.50
2017-12-21T02:24:52.845Z,3.50
2017-12-21T02:27:20.379Z,3.50
2017-12-21T02:29:48.676Z,3.50
2017-12-21T02:32:16.974Z,3.50
2017-12-21T02:34:44.494Z,3.50
2017-12-21T02:37:12.039Z,3.50
2017-12-21T02:39:39.566Z,3.50
2017-12-21T02:42:07.150Z,3.50
2017-12-21T02:44:34.667Z,3.50
2017-12-21T02:47:02.949Z,3.50
2017-12-21T02:49:31.254Z,3.50
2017-12-21T02:51:58.767Z,3.50
2017-12-21T02:54:26.296Z,3.60
2017-12-21T02:56:53.813Z,3.60
2017-12-21T02:59:22.134Z,3.70
2017-12-21T03:01:49.669Z,3.70
2017-12-21T03:04:17.974Z,3.70
2017-12-21T03:06:45.494Z,3.60
2017-12-21T03:09:13.028Z,3.70
2017-12-21T03:11:40.546Z,3.70
2017-12-21T03:14:08.851Z,3.70
2017-12-21T03:16:36.374Z,3.70
2017-12-21T03:19:03.910Z,3.60
2017-12-21T03:21:31.427Z,3.60
2017-12-21T03:23:59.726Z,3.70
2017-12-21T03:26:27.242Z,3.60
2017-12-21T03:28:54.779Z,3.70
2017-12-21T03:31:22.299Z,3.70
2017-12-21T03:33:50.603Z,3.60
2017-12-21T03:36:18.126Z,3.60
2017-12-21T03:38:46.426Z,3.70
2017-12-21T03:41:14.714Z,3.60
2017-12-21T03:43:42.282Z,3.70
2017-12-21T03:46:09.804Z,3.60
2017-12-21T03:48:37.322Z,3.60
2017-12-21T03:51:04.863Z,3.70
2017-12-21T03:53:33.154Z,3.70
2017-12-21T03:56:00.701Z,3.70
2017-12-21T03:58:28.236Z,3.70
2017-12-21T04:00:55.783Z,3.70
2017-12-21T04:03:23.303Z,3.70
2017-12-21T04:05:50.841Z,3.80
2017-12-21T04:08:18.359Z,3.70
2017-12-21T04:10:45.874Z,3.70
2017-12-21T04:13:13.415Z,3.70
2017-12-21T04:15:40.934Z,3.70
2017-12-21T04:18:08.471Z,3.70
2017-12-21T04:20:36.750Z,3.70
2017-12-21T04:23:04.283Z,3.60
2017-12-21T04:25:31.800Z,3.70
2017-12-21T04:27:59.359Z,3.70
2017-12-21T04:30:27.634Z,3.80
2017-12-21T04:32:55.915Z,3.80
2017-12-21T04:35:24.213Z,3.80
2017-12-21T04:37:51.740Z,3.80
2017-12-21T04:40:19.281Z,3.80
2017-12-21T04:42:46.801Z,3.80
2017-12-21T04:45:14.338Z,3.80
2017-12-21T04:47:41.859Z,3.80
2017-12-21T04:50:09.403Z,3.80
2017-12-21T04:52:36.926Z,3.80
2017-12-21T04:55:04.461Z,3.80
2017-12-21T04:57:31.979Z,3.70
2017-12-21T05:00:00.286Z,3.80
2017-12-21T05:02:27.797Z,3.80
2017-12-21T05:04:55.328Z,3.80
2017-12-21T05:07:22.864Z,3.90
2017-12-21T05:09:50.397Z,3.90
2017-12-21T05:12:17.919Z,3.90
2017-12-21T05:14:45.449Z,3.90
2017-12-21T05:17:13.726Z,3.80
2017-12-21T05:19:42.024Z,3.80
2017-12-21T05:22:09.537Z,3.80
2017-12-21T05:24:37.069Z,3.80
2017-12-21T05:27:04.581Z,3.80
2017-12-21T05:29:32.878Z,3.90
2017-12-21T05:32:01.150Z,3.90
2017-12-21T05:34:29.454Z,4.00
2017-12-21T05:36:56.971Z,3.90
2017-12-21T05:39:24.507Z,4.00
2017-12-21T05:41:52.021Z,4.00
2017-12-21T05:44:20.353Z,4.00
2017-12-21T05:46:47.862Z,4.00
2017-12-21T05:49:16.138Z,4.00
2017-12-21T05:51:44.434Z,4.00
2017-12-21T05:54:11.949Z,4.00
2017-12-21T05:56:39.483Z,4.00
2017-12-21T05:59:07.599Z,4.00
2017-12-21T06:01:35.902Z,4.00
2017-12-21T06:04:03.423Z,4.00
2017-12-21T06:06:31.041Z,4.00
2017-12-21T06:08:58.553Z,4.00
2017-12-21T06:11:26.099Z,4.00
2017-12-21T06:13:53.619Z,4.00
2017-12-21T06:16:21.155Z,4.00
2017-12-21T06:18:48.689Z,4.00
2017-12-21T06:21:16.203Z,4.00
2017-12-21T06:23:44.510Z,4.00
2017-12-21T06:26:12.026Z,4.00
2017-12-21T06:28:40.325Z,4.00
2017-12-21T06:31:07.851Z,3.90
2017-12-21T06:33:35.405Z,4.00
2017-12-21T06:36:02.931Z,4.00
2017-12-21T06:38:30.466Z,4.00
2017-12-21T06:40:58.742Z,4.00
2017-12-21T06:43:27.041Z,4.00
2017-12-21T06:45:54.559Z,4.00
2017-12-21T06:48:22.099Z,4.00
2017-12-21T06:50:49.618Z,4.00
2017-12-21T06:53:17.902Z,4.00
2017-12-21T06:55:46.196Z,4.00
2017-12-21T06:58:13.714Z,4.00
2017-12-21T07:00:41.250Z,4.00
2017-12-21T07:03:08.758Z,4.00
2017-12-21T07:05:36.289Z,4.00
2017-12-21T07:08:03.806Z,4.10
2017-12-21T07:10:32.182Z,4.10
2017-12-21T07:12:59.699Z,4.10
2017-12-21T07:15:27.597Z,4.10
2017-12-21T07:17:55.371Z,4.10
2017-12-21T07:20:23.870Z,4.10
2017-12-21T07:22:52.556Z,4.20
2017-12-21T07:25:20.553Z,4.10
2017-12-21T07:27:48.256Z,4.20
2017-12-21T07:30:15.884Z,4.10
2017-12-21T07:32:43.461Z,4.10
2017-12-21T07:35:11.003Z,4.20
2017-12-21T07:37:39.282Z,4.20
2017-12-21T07:40:07.588Z,4.20
2017-12-21T07:42:35.108Z,4.20
2017-12-21T07:45:02.677Z,4.20
2017-12-21T07:47:30.182Z,4.20
2017-12-21T07:49:57.705Z,4.20
2017-12-21T07:52:25.237Z,4.20
2017-12-21T07:54:52.800Z,4.30
2017-12-21T07:57:20.334Z,4.30
2017-12-21T07:59:47.851Z,4.30
2017-12-21T08:02:15.404Z,4.30
2017-12-21T08:04:42.919Z,4.40
2017-12-21T08:07:11.255Z,4.40
2017-12-21T08:09:38.782Z,4.40
2017-12-21T08:12:06.318Z,4.50
2017-12-21T08:14:33.866Z,4.50
2017-12-21T08:17:01.387Z,4.50
2017-12-21T08:19:28.926Z,4.50
2017-12-21T08:21:56.459Z,4.50
2017-12-21T08:24:24.002Z,4.50
2017-12-21T08:26:51.563Z,4.60
2017-12-21T08:29:19.104Z,4.50
2017-12-21T08:31:46.619Z,4.60
2017-12-21T08:34:14.167Z,4.60
2017-12-21T08:36:41.690Z,4.60
2017-12-21T08:39:09.234Z,4.60
2017-12-21T08:41:36.751Z,4.60
2017-12-21T08:44:04.283Z,4.60
2017-12-21T08:46:31.812Z,4.60
2017-12-21T08:49:00.116Z,4.70
2017-12-21T08:51:27.634Z,4.70
2017-12-21T08:56:16.055Z,4.80
2017-12-21T08:58:43.574Z,4.80
2017-12-21T09:01:11.107Z,4.80
2017-12-21T09:03:38.626Z,4.90
2017-12-21T09:06:06.173Z,4.90
2017-12-21T09:08:34.468Z,4.90
2017-12-21T09:11:02.006Z,4.90
2017-12-21T09:13:29.525Z,4.90
2017-12-21T09:15:57.062Z,5.00
2017-12-21T09:18:24.582Z,5.00
2017-12-21T09:20:52.114Z,5.00
2017-12-21T09:23:19.634Z,5.00
2017-12-21T09:25:47.996Z,5.00
2017-12-21T09:28:16.286Z,5.10
2017-12-21T09:30:44.582Z,5.10
2017-12-21T09:33:12.142Z,5.10
2017-12-21T09:35:39.654Z,5.20
2017-12-21T09:38:07.237Z,5.30
2017-12-21T09:40:34.725Z,5.30
2017-12-21T09:43:02.268Z,5.30
2017-12-21T09:45:30.554Z,5.40
2017-12-21T09:47:58.882Z,5.30
2017-12-21T09:50:26.394Z,5.30
2017-12-21T09:52:54.703Z,5.40
2017-12-21T09:55:22.219Z,5.40
2017-12-21T09:57:49.753Z,5.40
2017-12-21T10:00:17.292Z,5.40
2017-12-21T10:02:44.847Z,5.40
2017-12-21T10:05:12.371Z,5.40
2017-12-21T10:07:40.673Z,5.40
2017-12-21T10:10:08.194Z,5.40
2017-12-21T10:12:35.726Z,5.40
2017-12-21T10:15:03.255Z,5.40
2017-12-21T10:17:30.792Z,5.40
2017-12-21T10:19:59.074Z,5.50
2017-12-21T10:22:27.383Z,5.50
2017-12-21T10:24:54.900Z,5.50
2017-12-21T10:27:22.434Z,5.50
2017-12-21T10:29:50.744Z,5.50
2017-12-21T10:32:19.027Z,5.50
2017-12-21T10:34:47.333Z,5.50
2017-12-21T10:37:14.854Z,5.50
2017-12-21T10:39:42.385Z,5.50
2017-12-21T10:42:09.902Z,5.50
2017-12-21T10:44:37.438Z,5.50
2017-12-21T10:47:04.986Z,5.60
2017-12-21T10:49:32.524Z,5.60
2017-12-21T10:52:00.034Z,5.60
2017-12-21T10:54:28.333Z,5.70
2017-12-21T10:56:55.846Z,5.70
2017-12-21T10:59:23.382Z,5.80
2017-12-21T11:01:50.901Z,5.80
2017-12-21T11:04:19.206Z,5.90
2017-12-21T11:06:46.730Z,5.80
2017-12-21T11:09:15.032Z,5.90
2017-12-21T11:11:42.551Z,5.90
2017-12-21T11:14:10.091Z,5.90
2017-12-21T11:16:37.614Z,5.90
2017-12-21T11:19:05.148Z,5.90
2017-12-21T11:21:33.430Z,5.90
2017-12-21T11:24:01.735Z,5.90
2017-12-21T11:26:29.251Z,5.90
2017-12-21T11:28:56.794Z,5.90
2017-12-21T11:31:24.310Z,5.90
2017-12-21T11:33:51.832Z,5.90
2017-12-21T11:36:19.371Z,5.90
2017-12-21T11:38:46.886Z,5.90
2017-12-21T11:41:14.436Z,5.90
2017-12-21T11:43:42.736Z,5.90
2017-12-21T11:46:10.284Z,5.90
2017-12-21T11:48:38.575Z,6.00
2017-12-21T11:51:06.111Z,6.00
2017-12-21T11:53:34.399Z,6.00
2017-12-21T11:56:02.701Z,6.00
2017-12-21T11:58:30.254Z,6.00
2017-12-21T12:00:58.550Z,6.10
2017-12-21T12:03:26.075Z,6.00
2017-12-21T12:05:54.374Z,6.00
2017-12-21T12:08:21.890Z,6.00
2017-12-21T12:10:50.934Z,6.00
2017-12-21T12:13:18.460Z,6.00
2017-12-21T12:15:46.038Z,6.00
2017-12-21T12:18:14.324Z,6.00
2017-12-21T12:20:42.607Z,6.00
2017-12-21T12:23:10.908Z,5.90
2017-12-21T12:25:38.424Z,5.90
2017-12-21T12:28:05.954Z,5.90
2017-12-21T12:30:33.461Z,5.90
2017-12-21T12:33:01.767Z,5.90
2017-12-21T12:35:29.290Z,5.90
2017-12-21T12:37:56.829Z,6.00
2017-12-21T12:40:24.353Z,6.00
2017-12-21T12:42:51.887Z,6.00
2017-12-21T12:45:19.412Z,6.00
2017-12-21T12:47:46.943Z,6.00
2017-12-21T12:50:14.462Z,6.10
2017-12-21T12:52:42.002Z,6.10
2017-12-21T12:55:09.519Z,6.10
2017-12-21T12:57:37.061Z,6.10
2017-12-21T13:00:04.576Z,6.10
2017-12-21T13:02:32.114Z,6.10
2017-12-21T13:04:59.638Z,6.10
2017-12-21T13:07:27.167Z,6.10
2017-12-21T13:09:54.686Z,6.00
2017-12-21T13:12:22.222Z,6.00
2017-12-21T13:14:49.734Z,6.00
2017-12-21T13:17:17.274Z,5.90
2017-12-21T13:19:45.555Z,5.80
2017-12-21T13:22:13.862Z,5.80
2017-12-21T13:24:41.380Z,5.80
2017-12-21T13:27:08.967Z,5.80
2017-12-21T13:29:37.250Z,5.90
2017-12-21T13:32:05.537Z,5.90
2017-12-21T13:34:33.071Z,5.90
2017-12-21T13:37:00.594Z,5.90
2017-12-21T13:39:28.126Z,6.00
2017-12-21T13:41:55.648Z,6.00
2017-12-21T13:44:23.183Z,5.90
2017-12-21T13:46:50.707Z,6.00
2017-12-21T13:49:19.005Z,6.00
2017-12-21T13:51:46.530Z,6.00
2017-12-21T13:54:14.073Z,6.00
2017-12-21T13:56:41.595Z,6.10
2017-12-21T13:59:09.140Z,6.10
2017-12-21T14:01:37.426Z,6.10
2017-12-21T14:04:05.718Z,6.10
2017-12-21T14:06:33.234Z,6.00
2017-12-21T14:09:00.766Z,6.10
2017-12-21T14:11:28.283Z,6.00
2017-12-21T14:13:56.574Z,6.10
2017-12-21T14:16:24.093Z,6.00
2017-12-21T14:18:51.634Z,6.10
2017-12-21T14:21:19.153Z,6.10
2017-12-21T14:23:47.461Z,6.10
2017-12-21T14:26:15.796Z,6.10
2017-12-21T14:28:43.331Z,6.10
2017-12-21T14:31:10.846Z,6.10
2017-12-21T14:33:39.156Z,6.20
2017-12-21T14:36:06.711Z,6.20
2017-12-21T14:38:34.250Z,6.20
2017-12-21T14:41:02.539Z,6.10
2017-12-21T14:43:30.838Z,6.10
2017-12-21T14:45:58.358Z,6.10
2017-12-21T14:48:25.897Z,6.10
2017-12-21T14:50:53.415Z,6.00
2017-12-21T14:53:21.699Z,6.10
2017-12-21T14:55:49.230Z,6.10
2017-12-21T14:58:16.747Z,6.10
2017-12-21T15:00:44.282Z,6.10
2017-12-21T15:03:12.562Z,6.10
2017-12-21T15:05:40.863Z,6.10
2017-12-21T15:08:08.379Z,6.10
2017-12-21T15:10:35.918Z,6.10
2017-12-21T15:13:03.433Z,6.10
2017-12-21T15:15:31.730Z,6.20
2017-12-21T15:17:59.267Z,6.10
2017-12-21T15:20:26.793Z,6.10
2017-12-21T15:22:54.319Z,6.00
2017-12-21T15:25:21.880Z,6.00
2017-12-21T15:27:50.158Z,6.20
2017-12-21T15:30:18.449Z,6.20
2017-12-21T15:32:45.982Z,6.10
2017-12-21T15:35:13.498Z,6.20
2017-12-21T15:37:41.030Z,6.20
2017-12-21T15:40:09.315Z,6.20
2017-12-21T15:42:36.907Z,6.20
2017-12-21T15:45:04.433Z,6.20
2017-12-21T15:47:32.736Z,6.20
2017-12-21T15:50:00.250Z,6.20
2017-12-21T15:52:27.860Z,6.20
2017-12-21T15:54:55.336Z,6.30
2017-12-21T15:57:22.869Z,6.30
2017-12-21T15:59:51.151Z,6.30
2017-12-21T16:02:19.454Z,6.30
2017-12-21T16:04:46.978Z,6.20
2017-12-21T16:07:14.490Z,6.30
2017-12-21T16:09:42.022Z,6.30
2017-12-21T16:12:10.306Z,6.20
2017-12-21T16:14:37.843Z,6.20
2017-12-21T16:17:05.359Z,6.20
2017-12-21T16:19:32.890Z,6.20
2017-12-21T16:22:00.412Z,6.20
2017-12-21T16:24:27.982Z,6.20
2017-12-21T16:26:55.504Z,6.20
2017-12-21T16:29:23.063Z,6.10
2017-12-21T16:31:50.586Z,6.10
2017-12-21T16:34:18.922Z,6.20
2017-12-21T16:36:46.454Z,6.20
2017-12-21T16:39:13.970Z,6.10
2017-12-21T16:41:42.270Z,6.10
2017-12-21T16:44:09.840Z,6.10
2017-12-21T16:46:37.384Z,6.10
2017-12-21T16:49:05.673Z,6.00
2017-12-21T16:51:33.214Z,6.00
2017-12-21T16:54:01.508Z,6.10
2017-12-21T16:56:29.055Z,6.10
2017-12-21T16:58:57.340Z,6.10
2017-12-21T17:01:25.642Z,6.10
2017-12-21T17:03:53.163Z,6.10
2017-12-21T17:06:20.735Z,6.10
2017-12-21T17:08:49.023Z,6.20
2017-12-21T17:11:17.312Z,6.30
2017-12-21T17:13:44.845Z,6.30
2017-12-21T17:16:13.177Z,6.30
2017-12-21T17:18:40.715Z,6.30
2017-12-21T17:21:08.234Z,6.30
2017-12-21T17:23:35.824Z,6.30
2017-12-21T17:26:04.101Z,6.20
2017-12-21T17:28:32.402Z,6.10
2017-12-21T17:30:59.929Z,6.20
2017-12-21T17:33:28.246Z,6.10
2017-12-21T17:35:55.766Z,6.10
2017-12-21T17:38:24.050Z,6.20
2017-12-21T17:40:52.392Z,6.20
2017-12-21T17:43:19.906Z,6.20
2017-12-21T17:45:48.302Z,6.30
2017-12-21T17:48:15.864Z,6.30
2017-12-21T17:50:43.399Z,6.30
2017-12-21T17:53:11.687Z,6.30
2017-12-21T17:55:40.034Z,6.30
2017-12-21T17:58:07.554Z,6.20
2017-12-21T18:00:35.085Z,6.30
2017-12-21T18:03:03.366Z,6.50
2017-12-21T18:05:31.703Z,6.60
2017-12-21T18:07:59.213Z,6.60
2017-12-21T18:10:27.526Z,6.50
2017-12-21T18:12:55.087Z,6.50
2017-12-21T18:15:22.669Z,6.50
2017-12-21T18:17:50.189Z,6.40
2017-12-21T18:20:17.731Z,6.30
2017-12-21T18:22:46.011Z,6.30
2017-12-21T18:25:14.352Z,6.30
2017-12-21T18:27:42.642Z,6.30
2017-12-21T18:30:10.226Z,6.30
2017-12-21T18:32:38.562Z,6.30
2017-12-21T18:35:06.150Z,6.20
2017-12-21T18:37:33.675Z,6.20
2017-12-21T18:40:01.259Z,6.10
2017-12-21T18:42:28.778Z,6.20
2017-12-21T18:44:56.303Z,6.30
2017-12-21T18:47:23.835Z,6.30
2017-12-21T18:49:51.349Z,6.40
2017-12-21T18:52:19.655Z,6.40
2017-12-21T18:54:47.166Z,6.40
2017-12-21T18:57:14.703Z,6.40
2017-12-21T18:59:42.274Z,6.30
2017-12-21T19:02:09.863Z,6.30
2017-12-21T19:04:38.147Z,6.20
2017-12-21T19:07:06.451Z,6.20
2017-12-21T19:09:34.012Z,6.20
2017-12-21T19:12:01.599Z,6.20
2017-12-21T19:14:29.114Z,6.20
2017-12-21T19:16:57.480Z,6.40
2017-12-21T19:19:25.809Z,6.40
2017-12-21T19:21:53.373Z,6.40
2017-12-21T19:24:20.920Z,6.50
2017-12-21T19:26:48.493Z,6.40
2017-12-21T19:29:16.036Z,6.40
2017-12-21T19:31:43.555Z,6.40
2017-12-21T19:34:11.147Z,6.40
2017-12-21T19:36:38.709Z,6.40
2017-12-21T19:39:06.289Z,6.40
2017-12-21T19:41:33.859Z,6.40
2017-12-21T19:44:01.430Z,6.40
2017-12-21T19:46:29.017Z,6.30
2017-12-21T19:48:56.531Z,6.30
2017-12-21T19:51:24.118Z,6.30
2017-12-21T19:53:51.683Z,6.30
2017-12-21T19:56:20.038Z,6.30
2017-12-21T19:58:47.558Z,6.30
2017-12-21T20:01:15.923Z,6.40
2017-12-21T20:03:43.494Z,6.40
2017-12-21T20:06:11.067Z,6.40
2017-12-21T20:08:39.442Z,6.40
2017-12-21T20:11:07.774Z,6.50
2017-12-21T20:13:36.124Z,6.50
2017-12-21T20:16:03.701Z,6.50
2017-12-21T20:18:31.290Z,6.40
2017-12-21T20:20:58.866Z,6.50
2017-12-21T20:23:26.467Z,6.40
2017-12-21T20:25:54.046Z,6.40
2017-12-21T20:28:21.645Z,6.40
2017-12-21T20:30:49.264Z,6.50
2017-12-21T20:33:16.855Z,6.40
2017-12-21T20:35:44.422Z,6.40
2017-12-21T20:38:12.013Z,6.40
2017-12-21T20:40:39.582Z,6.40
2017-12-21T20:43:07.981Z,6.40
2017-12-21T20:45:36.308Z,6.30
2017-12-21T20:48:03.864Z,6.30
2017-12-21T20:50:31.454Z,6.30
2017-12-21T20:52:59.079Z,6.30
2017-12-21T20:55:26.676Z,6.30
2017-12-21T20:57:54.257Z,6.40
2017-12-21T21:00:22.623Z,6.50
2017-12-21T21:02:50.198Z,6.50
2017-12-21T21:05:18.566Z,6.50
2017-12-21T21:07:46.132Z,6.50
2017-12-21T21:10:13.765Z,6.50
2017-12-21T21:12:41.339Z,6.50
2017-12-21T21:15:08.910Z,6.50
2017-12-21T21:17:36.493Z,6.50
2017-12-21T21:20:04.825Z,6.50
2017-12-21T21:22:32.416Z,6.50
2017-12-21T21:24:59.941Z,6.50
2017-12-21T21:27:27.475Z,6.40
2017-12-21T21:29:55.053Z,6.40
2017-12-21T21:32:22.771Z,6.40
2017-12-21T21:34:50.343Z,6.40
2017-12-21T21:37:18.678Z,6.40
2017-12-21T21:39:46.270Z,6.40
2017-12-21T21:42:14.622Z,6.50
2017-12-21T21:44:42.163Z,6.50
2017-12-21T21:47:09.683Z,6.50
2017-12-21T21:49:38.037Z,6.50
2017-12-21T21:52:05.611Z,6.50
2017-12-21T21:54:33.230Z,6.50
2017-12-21T21:57:00.744Z,6.60
2017-12-21T21:59:29.054Z,6.60
2017-12-21T22:01:56.621Z,6.60
2017-12-21T22:04:24.836Z,6.60
2017-12-21T22:06:52.426Z,6.60
2017-12-21T22:09:20.757Z,6.60
2017-12-21T22:11:48.294Z,6.60
2017-12-21T22:14:15.861Z,6.60
2017-12-21T22:16:43.442Z,6.60
2017-12-21T22:19:11.001Z,6.60
2017-12-21T22:21:38.590Z,6.60
2017-12-21T22:24:06.136Z,6.60
2017-12-21T22:26:33.722Z,6.60
2017-12-21T22:29:02.014Z,6.60
2017-12-21T22:31:29.592Z,6.50
2017-12-21T22:33:57.157Z,6.50
2017-12-21T22:36:24.738Z,6.50
2017-12-21T22:38:52.310Z,6.50
2017-12-21T22:41:19.900Z,6.60
2017-12-21T22:43:48.242Z,6.60
2017-12-21T22:46:16.404Z,6.50
2017-12-21T22:48:43.969Z,6.60
2017-12-21T22:51:11.590Z,6.50
2017-12-21T22:53:39.931Z,6.40
2017-12-21T22:56:07.516Z,6.40
2017-12-21T22:58:35.846Z,6.40
2017-12-21T23:01:03.448Z,6.40
2017-12-21T23:03:31.013Z,6.30
2017-12-21T23:05:58.633Z,6.30
2017-12-21T23:08:26.205Z,6.30
2017-12-21T23:10:53.779Z,6.30
2017-12-21T23:13:21.323Z,6.30
2017-12-21T23:15:48.891Z,6.40
2017-12-21T23:18:16.431Z,6.40
2017-12-21T23:20:43.950Z,6.40
2017-12-21T23:23:12.255Z,6.40
2017-12-21T23:25:39.775Z,6.40
2017-12-21T23:28:07.363Z,6.40
2017-12-21T23:30:34.925Z,6.30
2017-12-21T23:33:02.509Z,6.30
2017-12-21T23:35:30.026Z,6.30
2017-12-21T23:37:58.371Z,6.30
2017-12-21T23:40:25.932Z,6.30
2017-12-21T23:42:53.466Z,6.40
2017-12-21T23:45:20.979Z,6.40
2017-12-21T23:47:48.555Z,6.30
2017-12-21T23:50:16.882Z,6.40
2017-12-21T23:52:44.465Z,6.30
2017-12-21T23:55:11.983Z,6.40
2017-12-21T23:57:39.518Z,6.40
